Seatac, WA

3:05 PM PST en Diciembre 18, 2014 (GMT -0800)
Seattle-Tacoma International | Change Station
CLOSE
Current Station
Aeropuerto
Location: Seattle,
Altura: 433 ft
Estaciones meteorológicas cercanas

Alt 433 ft 47.44 °N, 122.31 °W | Updated 12 minutes ago

Nublado
Nublado
48 ° F
Sensación térmica 48 ° F
N
5
Viento Variable Viento desde Sur

Hoy
Alta -- | Baja -- ° F
--% Posibilidad de precipitaciones
Ayer
Alta -- | Baja -- ° F
Precip. -- pul
7:52 AM 4:19 PM
Creciente menguante, 12% visible
Presión 29.85 pul
Visibilidad 7.0 Millas
Nubes Baja 3000 ft
Muy nublado 4900 ft
Nublado 7000 ft
Punto de rocío 43 ° F
Humedad 83%
Precipitaciones 0.10 pul
Espesor de la nieve No disponible.
UV 0 de una escala de 12
Polen .70 de una escala de 12
Calidad del aire No disponible.
Flu Activity No disponible.
METAR KSEA 182253Z 19004KT 7SM -RA FEW030 BKN049 OVC070 09/06 A2982 RMK AO2 RAB17 SLP106 P0001 T00890061

More Conditions Fewer Conditions

Presión 29.85 pul
Visibilidad 7.0 Millas
Nubes Baja 3000 ft
Muy nublado 4900 ft
Nublado 7000 ft
Punto de rocío 43 ° F
Humedad 83%
Precipitaciones 0.10 pul
Espesor de la nieve No disponible.
UV 0 de una escala de 12
Polen .70 de una escala de 12
Calidad del aire No disponible.
Flu Activity No disponible.
METAR KSEA 182253Z 19004KT 7SM -RA FEW030 BKN049 OVC070 09/06 A2982 RMK AO2 RAB17 SLP106 P0001 T00890061

More Conditions Fewer Conditions

10-Day Weather Forecast

Almanac

Astronomía

Dec. 18, 2014 Salida Puesta
Hora real
Crepúsculo civil
Crepúsculo náutico
Crepúsculo astronómico
Luna
Horas de luz
Horas de luz
Tomorrow will be .
, % of the Moon is Illuminated

Extremos de hoy

Máximos del estado Bajos del estado

Community

WunderPhotos

Upload Photos

1,779,014 ¡fotos cargadas!

WunderBlogs® & News

Nearby

Calidad del aire

  Calidad del aire Índice AQ Contaminante
Not available.

Grosos de nieve

Estación Profundido Altura

Actividad de terremotos

Ciudad Distance Mag. Tiempo y dato
Magnitud mínima muestra es 2,5.

Temperaturas de aguas costeras

Lugar Temperatura

Estaciones meteorológicas cercanas